createdAt,value
2018-03-01T00:02:14.866Z,15.73
2018-03-01T00:04:42.455Z,16.12
2018-03-01T00:07:10.011Z,15.88
2018-03-01T00:09:37.576Z,16.50
2018-03-01T00:12:05.158Z,15.60
2018-03-01T00:14:32.701Z,16.92
2018-03-01T00:17:00.371Z,15.93
2018-03-01T00:19:27.874Z,16.60
2018-03-01T00:21:56.188Z,17.08
2018-03-01T00:24:23.733Z,16.23
2018-03-01T00:26:51.354Z,16.40
2018-03-01T00:29:18.879Z,15.15
2018-03-01T00:31:46.414Z,14.60
2018-03-01T00:34:14.724Z,16.60
2018-03-01T00:36:42.343Z,16.00
2018-03-01T00:39:09.878Z,15.60
2018-03-01T00:41:37.492Z,16.20
2018-03-01T00:44:05.018Z,16.70
2018-03-01T00:46:32.552Z,15.73
2018-03-01T00:49:00.122Z,16.58
2018-03-01T00:51:27.676Z,15.07
2018-03-01T00:53:55.214Z,14.95
2018-03-01T00:56:23.522Z,16.73
2018-03-01T00:58:51.065Z,15.70
2018-03-01T01:01:19.671Z,16.45
2018-03-01T01:03:47.220Z,15.45
2018-03-01T01:06:15.609Z,15.43
2018-03-01T01:08:43.907Z,15.65
2018-03-01T01:11:11.462Z,15.68
2018-03-01T01:13:39.789Z,15.00
2018-03-01T01:16:07.328Z,14.68
2018-03-01T01:18:34.876Z,15.45
2018-03-01T01:21:03.206Z,15.07
2018-03-01T01:23:30.739Z,15.85
2018-03-01T01:25:58.298Z,16.37
2018-03-01T01:28:25.836Z,13.52
2018-03-01T01:30:53.377Z,15.77
2018-03-01T01:33:20.970Z,15.40
2018-03-01T01:35:49.285Z,16.27
2018-03-01T01:38:17.246Z,15.10
2018-03-01T01:40:44.858Z,15.32
2018-03-01T01:43:12.404Z,13.45
2018-03-01T01:45:39.949Z,17.27
2018-03-01T01:48:07.499Z,14.60
2018-03-01T01:50:47.671Z,15.15
2018-03-01T01:53:15.202Z,16.70
2018-03-01T01:55:42.773Z,16.08
2018-03-01T01:58:11.094Z,15.80
2018-03-01T02:00:38.633Z,13.70
2018-03-01T02:03:06.987Z,15.57
2018-03-01T02:05:34.657Z,15.30
2018-03-01T02:08:02.205Z,14.55
2018-03-01T02:10:29.870Z,15.70
2018-03-01T02:12:57.503Z,14.80
2018-03-01T02:15:25.067Z,15.13
2018-03-01T02:17:52.685Z,15.50
2018-03-01T02:20:20.210Z,15.98
2018-03-01T02:22:47.765Z,15.60
2018-03-01T02:25:15.314Z,16.60
2018-03-01T02:27:43.713Z,15.85
2018-03-01T02:30:26.110Z,16.10
2018-03-01T02:32:53.648Z,15.45
2018-03-01T02:35:21.192Z,16.27
2018-03-01T02:37:48.735Z,16.25
2018-03-01T02:40:16.374Z,17.08
2018-03-01T02:42:44.006Z,14.82
2018-03-01T02:45:11.565Z,14.07
2018-03-01T02:47:39.100Z,16.48
2018-03-01T02:50:06.686Z,14.77
2018-03-01T02:52:34.235Z,15.88
2018-03-01T02:55:01.836Z,15.43
2018-03-01T02:57:29.530Z,15.48
2018-03-01T02:59:57.830Z,15.35
2018-03-01T03:02:25.365Z,16.08
2018-03-01T03:04:53.668Z,16.23
2018-03-01T03:07:21.220Z,15.10
2018-03-01T03:09:49.830Z,14.30
2018-03-01T03:12:17.370Z,15.43
2018-03-01T03:14:45.678Z,15.43
2018-03-01T03:17:13.225Z,14.27
2018-03-01T03:19:41.525Z,16.08
2018-03-01T03:22:09.073Z,16.12
2018-03-01T03:24:37.389Z,15.10
2018-03-01T03:27:04.922Z,17.27
2018-03-01T03:29:33.235Z,16.25
2018-03-01T03:32:00.779Z,14.95
2018-03-01T03:34:28.336Z,15.43
2018-03-01T03:36:56.628Z,16.62
2018-03-01T03:39:24.163Z,15.32
2018-03-01T03:41:51.702Z,16.23
2018-03-01T03:44:19.307Z,16.20
2018-03-01T03:46:47.632Z,16.58
2018-03-01T03:49:15.163Z,16.40
2018-03-01T03:51:43.540Z,16.05
2018-03-01T03:54:11.853Z,16.05
2018-03-01T03:56:39.383Z,16.80
2018-03-01T03:59:07.716Z,15.88
2018-03-01T04:01:35.250Z,17.00
2018-03-01T04:04:02.789Z,16.95
2018-03-01T04:06:31.104Z,14.40
2018-03-01T04:08:58.722Z,14.93
2018-03-01T04:11:26.291Z,15.40
2018-03-01T04:13:53.834Z,15.40
2018-03-01T04:16:21.370Z,16.50
2018-03-01T04:18:48.915Z,15.98
2018-03-01T04:21:17.225Z,15.70
2018-03-01T04:23:45.562Z,15.02
2018-03-01T04:26:13.089Z,14.98
2018-03-01T04:28:40.629Z,14.98
2018-03-01T04:31:08.182Z,16.12
2018-03-01T04:33:36.476Z,15.07
2018-03-01T04:36:04.030Z,12.57
2018-03-01T04:38:31.590Z,15.20
2018-03-01T04:40:59.907Z,15.45
2018-03-01T04:43:27.446Z,15.98
2018-03-01T04:45:54.987Z,15.00
2018-03-01T04:48:22.505Z,14.90
2018-03-01T04:50:50.041Z,15.95
2018-03-01T04:53:17.569Z,14.73
2018-03-01T04:55:45.117Z,15.50
2018-03-01T04:58:12.721Z,15.18
2018-03-01T05:00:41.044Z,14.95
2018-03-01T05:03:08.596Z,16.05
2018-03-01T05:05:36.121Z,13.68
2018-03-01T05:08:03.656Z,15.35
2018-03-01T05:10:31.335Z,15.93
2018-03-01T05:12:58.868Z,15.20
2018-03-01T05:15:26.434Z,14.40
2018-03-01T05:17:53.981Z,15.30
2018-03-01T05:20:21.524Z,14.57
2018-03-01T05:22:49.830Z,13.95
2018-03-01T05:25:17.375Z,15.52
2018-03-01T05:27:45.692Z,14.15
2018-03-01T05:30:13.248Z,14.82
2018-03-01T05:32:40.786Z,13.52
2018-03-01T05:35:08.360Z,15.50
2018-03-01T05:37:37.121Z,15.05
2018-03-01T05:40:04.662Z,14.45
2018-03-01T05:42:32.217Z,13.52
2018-03-01T05:44:59.763Z,14.87
2018-03-01T05:47:27.313Z,14.50
2018-03-01T05:49:55.623Z,15.18
2018-03-01T05:52:23.164Z,14.45
2018-03-01T05:54:51.473Z,14.75
2018-03-01T05:57:19.019Z,11.85
2018-03-01T05:59:46.551Z,15.25
2018-03-01T06:02:14.109Z,14.18
2018-03-01T06:04:41.778Z,15.70
2018-03-01T06:07:09.353Z,14.55
2018-03-01T06:09:36.914Z,14.98
2018-03-01T06:12:04.451Z,13.18
2018-03-01T06:14:31.990Z,13.90
2018-03-01T06:16:59.526Z,14.80
2018-03-01T06:19:27.843Z,14.52
2018-03-01T06:21:55.381Z,13.68
2018-03-01T06:24:23.690Z,13.85
2018-03-01T06:26:51.253Z,12.63
2018-03-01T06:29:18.795Z,13.93
2018-03-01T06:31:47.105Z,14.85
2018-03-01T06:34:14.663Z,14.93
2018-03-01T06:36:42.219Z,15.32
2018-03-01T06:39:09.775Z,14.80
2018-03-01T06:41:38.082Z,15.02
2018-03-01T06:44:05.618Z,14.98
2018-03-01T06:46:33.925Z,14.07
2018-03-01T06:49:01.472Z,15.73
2018-03-01T06:51:29.882Z,15.02
2018-03-01T06:53:57.419Z,13.98
2018-03-01T06:56:25.737Z,14.05
2018-03-01T06:58:53.293Z,15.10
2018-03-01T07:01:20.837Z,13.32
2018-03-01T07:03:49.198Z,13.23
2018-03-01T07:06:16.899Z,13.40
2018-03-01T07:08:44.442Z,13.15
2018-03-01T07:11:12.779Z,12.80
2018-03-01T07:13:40.313Z,14.27
2018-03-01T07:16:07.878Z,13.45
2018-03-01T07:18:35.422Z,14.55
2018-03-01T07:21:03.737Z,13.93
2018-03-01T07:23:31.292Z,13.05
2018-03-01T07:25:58.825Z,14.20
2018-03-01T07:28:26.404Z,11.77
2018-03-01T07:30:54.760Z,13.75
2018-03-01T07:33:22.394Z,14.35
2018-03-01T07:35:49.941Z,14.30
2018-03-01T07:38:17.470Z,14.30
2018-03-01T07:40:45.101Z,13.45
2018-03-01T07:43:12.650Z,13.38
2018-03-01T07:45:40.389Z,13.55
2018-03-01T07:48:08.692Z,12.55
2018-03-01T07:50:36.258Z,14.05
2018-03-01T07:53:03.813Z,13.38
2018-03-01T07:55:31.358Z,14.57
2018-03-01T07:57:59.671Z,13.55
2018-03-01T08:00:27.213Z,11.57
2018-03-01T08:02:55.526Z,14.48
2018-03-01T08:05:23.089Z,13.18
2018-03-01T08:07:50.630Z,14.30
2018-03-01T08:10:18.930Z,14.15
2018-03-01T08:12:46.481Z,14.18
2018-03-01T08:15:14.787Z,15.32
2018-03-01T08:17:42.346Z,14.30
2018-03-01T08:20:09.884Z,15.35
2018-03-01T08:22:38.193Z,13.62
2018-03-01T08:25:05.723Z,14.48
2018-03-01T08:27:33.258Z,14.65
2018-03-01T08:30:00.855Z,14.52
2018-03-01T08:32:28.435Z,14.40
2018-03-01T08:34:56.845Z,14.43
2018-03-01T08:37:24.471Z,15.60
2018-03-01T08:39:51.961Z,16.10
2018-03-01T08:42:19.518Z,15.27
2018-03-01T08:44:47.829Z,14.57
2018-03-01T08:47:15.388Z,15.82
2018-03-01T08:49:42.940Z,15.25
2018-03-01T08:52:10.483Z,15.10
2018-03-01T08:54:38.046Z,15.00
2018-03-01T08:57:05.595Z,15.43
2018-03-01T08:59:33.150Z,14.90
2018-03-01T09:02:00.697Z,16.05
2018-03-01T09:04:28.257Z,15.00
2018-03-01T09:06:55.883Z,14.73
2018-03-01T09:09:24.244Z,14.95
2018-03-01T09:11:51.808Z,14.30
2018-03-01T09:14:19.343Z,14.73
2018-03-01T09:16:46.896Z,14.60
2018-03-01T09:19:14.467Z,14.73
2018-03-01T09:21:42.009Z,14.75
2018-03-01T09:24:09.778Z,14.90
2018-03-01T09:26:37.328Z,14.63
2018-03-01T09:29:05.641Z,15.18
2018-03-01T09:31:33.219Z,15.25
2018-03-01T09:34:00.752Z,16.00
2018-03-01T09:36:29.090Z,15.25
2018-03-01T09:38:56.647Z,15.65
2018-03-01T09:41:24.188Z,15.23
2018-03-01T09:43:51.738Z,16.08
2018-03-01T09:46:19.328Z,15.65
2018-03-01T09:48:46.860Z,16.45
2018-03-01T09:51:14.424Z,15.73
2018-03-01T09:53:42.749Z,15.13
2018-03-01T09:56:10.311Z,16.20
2018-03-01T09:58:37.850Z,15.90
2018-03-01T10:01:05.401Z,14.35
2018-03-01T10:03:33.729Z,15.13
2018-03-01T10:06:01.280Z,13.98
2018-03-01T10:08:28.870Z,15.73
2018-03-01T10:10:56.417Z,15.57
2018-03-01T10:13:23.968Z,15.13
2018-03-01T10:15:51.532Z,16.65
2018-03-01T10:18:19.093Z,16.37
2018-03-01T10:20:46.666Z,16.48
2018-03-01T10:23:14.211Z,16.85
2018-03-01T10:25:42.539Z,16.83
2018-03-01T10:28:10.082Z,15.43
2018-03-01T10:30:37.629Z,16.15
2018-03-01T10:33:05.959Z,16.08
2018-03-01T10:35:33.512Z,16.58
2018-03-01T10:38:01.045Z,16.92
2018-03-01T10:40:28.600Z,15.75
2018-03-01T10:42:56.978Z,14.55
2018-03-01T10:45:25.323Z,15.80
2018-03-01T10:47:52.869Z,14.80
2018-03-01T10:50:20.402Z,15.27
2018-03-01T10:52:48.724Z,16.27
2018-03-01T10:55:16.279Z,14.75
2018-03-01T10:57:43.909Z,15.50
2018-03-01T11:00:13.090Z,16.05
2018-03-01T11:02:40.621Z,15.45
2018-03-01T11:05:08.179Z,15.65
2018-03-01T11:07:35.744Z,14.93
2018-03-01T11:10:03.297Z,16.62
2018-03-01T11:12:30.832Z,16.55
2018-03-01T11:14:58.384Z,16.05
2018-03-01T11:17:25.947Z,15.70
2018-03-01T11:19:53.484Z,15.93
2018-03-01T11:22:21.082Z,16.12
2018-03-01T11:24:48.637Z,15.63
2018-03-01T11:27:16.218Z,15.45
2018-03-01T11:29:43.788Z,15.02
2018-03-01T11:32:11.323Z,15.23
2018-03-01T11:34:38.931Z,15.40
2018-03-01T11:37:06.478Z,14.70
2018-03-01T11:39:34.007Z,15.43
2018-03-01T11:42:01.554Z,14.27
2018-03-01T11:44:29.099Z,15.35
2018-03-01T11:46:57.436Z,15.73
2018-03-01T11:49:24.978Z,16.33
2018-03-01T11:51:53.296Z,15.60
2018-03-01T11:54:20.843Z,15.93
2018-03-01T11:56:48.386Z,16.17
2018-03-01T11:59:15.950Z,15.80
2018-03-01T12:01:43.537Z,16.70
2018-03-01T12:04:11.084Z,16.67
2018-03-01T12:06:38.632Z,16.50
2018-03-01T12:09:06.216Z,14.95
2018-03-01T12:11:33.762Z,15.63
2018-03-01T12:14:01.342Z,15.52
2018-03-01T12:16:28.871Z,15.15
2018-03-01T12:18:57.196Z,16.52
2018-03-01T12:21:24.748Z,17.35
2018-03-01T12:23:52.321Z,15.52
2018-03-01T12:26:19.877Z,16.90
2018-03-01T12:28:47.410Z,15.07
2018-03-01T12:31:14.953Z,15.63
2018-03-01T12:33:42.523Z,16.48
2018-03-01T12:36:10.106Z,16.25
2018-03-01T12:38:37.649Z,15.90
2018-03-01T12:41:05.188Z,16.27
2018-03-01T12:43:32.741Z,15.88
2018-03-01T12:46:00.326Z,15.43
2018-03-01T12:48:27.866Z,16.77
2018-03-01T12:50:55.402Z,16.02
2018-03-01T12:53:22.927Z,16.85
2018-03-01T12:55:50.463Z,16.87
2018-03-01T12:58:18.002Z,16.25
2018-03-01T13:00:46.340Z,17.10
2018-03-01T13:03:13.864Z,16.42
2018-03-01T13:05:41.422Z,15.38
2018-03-01T13:08:09.715Z,17.20
2018-03-01T13:10:38.002Z,16.98
2018-03-01T13:13:05.576Z,16.23
2018-03-01T13:15:33.443Z,16.98
2018-03-01T13:18:01.043Z,16.55
2018-03-01T13:20:28.602Z,16.98
2018-03-01T13:22:56.236Z,16.77
2018-03-01T13:25:23.790Z,15.68
2018-03-01T13:27:52.093Z,16.58
2018-03-01T13:30:19.678Z,17.10
2018-03-01T13:33:02.095Z,17.75
2018-03-01T13:35:34.162Z,16.27
2018-03-01T13:38:01.711Z,16.87
2018-03-01T13:40:29.254Z,17.40
2018-03-01T13:43:00.538Z,17.15
2018-03-01T13:45:30.787Z,16.98
2018-03-01T13:48:01.172Z,17.52
2018-03-01T13:50:28.736Z,16.95
2018-03-01T13:52:56.294Z,16.10
2018-03-01T13:55:23.871Z,17.45
2018-03-01T13:57:51.427Z,16.87
2018-03-01T14:00:19.046Z,16.62
2018-03-01T14:02:46.610Z,17.08
2018-03-01T14:05:14.138Z,16.83
2018-03-01T14:07:47.264Z,18.17
2018-03-01T14:10:14.809Z,16.35
2018-03-01T14:12:45.744Z,17.27
2018-03-01T14:15:13.289Z,16.40
2018-03-01T14:18:00.931Z,16.65
2018-03-01T14:20:34.065Z,16.25
2018-03-01T14:23:08.308Z,16.85
2018-03-01T14:25:37.488Z,16.33
2018-03-01T14:28:20.817Z,16.70
2018-03-01T14:30:48.341Z,17.33
2018-03-01T14:33:16.102Z,15.38
2018-03-01T14:35:43.653Z,16.90
2018-03-01T14:38:11.196Z,16.75
2018-03-01T14:40:39.537Z,16.10
2018-03-01T14:43:07.079Z,15.35
2018-03-01T14:45:34.620Z,16.15
2018-03-01T14:48:02.165Z,16.17
2018-03-01T14:50:30.465Z,16.77
2018-03-01T14:52:58.843Z,17.33
2018-03-01T14:55:27.185Z,15.90
2018-03-01T14:57:54.995Z,15.95
2018-03-01T15:00:23.297Z,16.00
2018-03-01T15:02:50.814Z,16.73
2018-03-01T15:05:18.738Z,16.67
2018-03-01T15:07:46.285Z,17.50
2018-03-01T15:10:14.585Z,16.67
2018-03-01T15:12:42.123Z,16.55
2018-03-01T15:15:09.655Z,16.27
2018-03-01T15:17:37.230Z,16.08
2018-03-01T15:20:04.775Z,15.48
2018-03-01T15:22:32.371Z,16.10
2018-03-01T15:24:59.915Z,15.75
2018-03-01T15:27:27.455Z,15.30
2018-03-01T15:29:55.007Z,15.23
2018-03-01T15:32:22.542Z,16.70
2018-03-01T15:34:50.079Z,16.60
2018-03-01T15:37:18.377Z,16.87
2018-03-01T15:39:45.910Z,16.00
2018-03-01T15:42:13.560Z,16.48
2018-03-01T15:44:41.117Z,16.33
2018-03-01T15:47:08.678Z,15.95
2018-03-01T15:49:36.291Z,17.55
2018-03-01T15:52:03.841Z,14.85
2018-03-01T15:54:31.400Z,16.33
2018-03-01T15:56:58.965Z,16.02
2018-03-01T15:59:26.491Z,16.52
2018-03-01T16:01:54.803Z,16.12
2018-03-01T16:04:22.369Z,16.90
2018-03-01T16:06:49.925Z,16.58
2018-03-01T16:09:17.483Z,15.52
2018-03-01T16:11:45.034Z,15.30
2018-03-01T16:14:13.380Z,15.52
2018-03-01T16:16:40.879Z,16.55
2018-03-01T16:19:09.196Z,16.55
2018-03-01T16:21:36.751Z,16.95
2018-03-01T16:24:04.285Z,15.25
2018-03-01T16:26:32.642Z,16.20
2018-03-01T16:29:00.218Z,16.23
2018-03-01T16:31:27.783Z,15.02
2018-03-01T16:33:55.323Z,14.93
2018-03-01T16:36:22.871Z,16.02
2018-03-01T16:38:50.500Z,15.13
2018-03-01T16:41:18.043Z,14.40
2018-03-01T16:43:45.626Z,15.75
2018-03-01T16:46:13.175Z,16.15
2018-03-01T16:48:40.763Z,15.88
2018-03-01T16:51:09.136Z,15.35
2018-03-01T16:53:36.717Z,16.62
2018-03-01T16:56:05.056Z,15.02
2018-03-01T16:58:32.606Z,15.23
2018-03-01T17:01:00.149Z,15.40
2018-03-01T17:03:27.772Z,15.80
2018-03-01T17:05:55.307Z,15.35
2018-03-01T17:08:23.231Z,15.40
2018-03-01T17:10:50.838Z,15.82
2018-03-01T17:13:18.375Z,15.68
2018-03-01T17:15:46.731Z,15.52
2018-03-01T17:18:14.277Z,17.83
2018-03-01T17:20:42.141Z,23.83
2018-03-01T17:23:09.735Z,15.60
2018-03-01T17:25:37.287Z,17.15
2018-03-01T17:28:04.845Z,16.05
2018-03-01T17:30:32.480Z,15.50
2018-03-01T17:33:00.077Z,16.62
2018-03-01T17:35:27.614Z,15.55
2018-03-01T17:37:55.179Z,16.60
2018-03-01T17:40:22.727Z,16.58
2018-03-01T17:42:51.045Z,16.55
2018-03-01T17:45:18.653Z,15.55
2018-03-01T17:47:46.236Z,17.10
2018-03-01T17:50:14.554Z,16.75
2018-03-01T17:52:42.098Z,16.52
2018-03-01T17:55:09.636Z,16.10
2018-03-01T17:57:37.232Z,16.30
2018-03-01T18:00:04.750Z,16.90
2018-03-01T18:02:32.317Z,15.52
2018-03-01T18:04:59.867Z,16.10
2018-03-01T18:07:27.443Z,17.30
2018-03-01T18:09:55.979Z,16.30
2018-03-01T18:12:23.538Z,17.08
2018-03-01T18:14:51.849Z,18.15
2018-03-01T18:17:19.398Z,16.62
2018-03-01T18:19:46.980Z,15.70
2018-03-01T18:22:14.539Z,16.02
2018-03-01T18:24:42.120Z,16.52
2018-03-01T18:27:09.750Z,19.55
2018-03-01T18:29:38.169Z,16.83
2018-03-01T18:32:05.712Z,16.75
2018-03-01T18:34:33.427Z,17.37
2018-03-01T18:37:00.941Z,16.35
2018-03-01T18:39:28.515Z,15.90
2018-03-01T18:41:56.054Z,17.12
2018-03-01T18:44:24.404Z,19.60
2018-03-01T18:46:51.962Z,16.23
2018-03-01T18:49:19.506Z,16.30
2018-03-01T18:51:47.100Z,16.75
2018-03-01T18:54:14.718Z,17.12
2018-03-01T18:56:42.252Z,17.67
2018-03-01T18:59:09.891Z,16.75
2018-03-01T19:01:37.512Z,16.48
2018-03-01T19:04:05.882Z,16.98
2018-03-01T19:06:34.192Z,15.95
2018-03-01T19:09:01.744Z,16.90
2018-03-01T19:11:30.137Z,16.98
2018-03-01T19:13:57.699Z,15.10
2018-03-01T19:16:25.997Z,16.37
2018-03-01T19:18:53.557Z,15.77
2018-03-01T19:21:21.178Z,15.93
2018-03-01T19:23:48.840Z,15.85
2018-03-01T19:26:17.095Z,17.65
2018-03-01T19:28:44.640Z,16.05
2018-03-01T19:31:12.214Z,16.98
2018-03-01T19:33:39.884Z,17.12
2018-03-01T19:36:07.631Z,20.15
2018-03-01T19:38:36.110Z,22.45
2018-03-01T19:41:04.499Z,34.47
2018-03-01T19:43:32.846Z,18.20
2018-03-01T19:46:00.389Z,17.05
2018-03-01T19:48:28.155Z,21.02
2018-03-01T19:50:55.738Z,16.92
2018-03-01T19:53:23.452Z,17.02
2018-03-01T19:55:51.038Z,17.92
2018-03-01T19:58:18.630Z,16.33
2018-03-01T20:00:46.208Z,17.30
2018-03-01T20:03:13.769Z,17.05
2018-03-01T20:05:41.403Z,16.27
2018-03-01T20:08:09.004Z,17.70
2018-03-01T20:10:36.550Z,17.73
2018-03-01T20:13:04.149Z,16.87
2018-03-01T20:15:31.720Z,16.48
2018-03-01T20:17:59.344Z,17.90
2018-03-01T20:20:26.950Z,17.30
2018-03-01T20:22:54.529Z,18.02
2018-03-01T20:25:22.112Z,17.33
2018-03-01T20:27:49.704Z,19.77
2018-03-01T20:30:17.526Z,18.25
2018-03-01T20:32:45.075Z,17.62
2018-03-01T20:35:13.446Z,17.85
2018-03-01T20:37:41.027Z,17.27
2018-03-01T20:40:08.565Z,18.75
2018-03-01T20:42:36.905Z,16.23
2018-03-01T20:45:05.335Z,19.12
2018-03-01T20:47:32.883Z,17.62
2018-03-01T20:50:00.498Z,17.90
2018-03-01T20:52:28.101Z,17.20
2018-03-01T20:54:56.446Z,28.33
2018-03-01T20:57:24.062Z,19.33
2018-03-01T20:59:51.628Z,20.98
2018-03-01T21:02:19.199Z,20.12
2018-03-01T21:04:46.792Z,18.70
2018-03-01T21:07:15.142Z,16.60
2018-03-01T21:09:42.884Z,18.83
2018-03-01T21:12:11.192Z,16.23
2018-03-01T21:14:38.840Z,17.37
2018-03-01T21:17:07.167Z,18.05
2018-03-01T21:19:34.767Z,18.67
2018-03-01T21:22:02.315Z,17.30
2018-03-01T21:24:29.866Z,20.20
2018-03-01T21:26:57.443Z,17.08
2018-03-01T21:29:24.992Z,18.73
2018-03-01T21:31:52.556Z,18.62
2018-03-01T21:34:20.109Z,19.05
2018-03-01T21:36:47.798Z,17.33
2018-03-01T21:39:15.368Z,19.15
2018-03-01T21:41:43.671Z,17.80
2018-03-01T21:44:11.248Z,18.27
2018-03-01T21:46:38.788Z,21.15
2018-03-01T21:49:06.323Z,20.05
2018-03-01T21:51:33.889Z,20.77
2018-03-01T21:54:01.446Z,20.55
2018-03-01T21:56:28.995Z,18.20
2018-03-01T21:58:57.300Z,19.65
2018-03-01T22:01:24.860Z,21.02
2018-03-01T22:03:53.291Z,19.73
2018-03-01T22:06:20.820Z,19.48
2018-03-01T22:08:48.360Z,18.52
2018-03-01T22:11:16.663Z,19.27
2018-03-01T22:13:44.215Z,20.10
2018-03-01T22:16:11.782Z,19.85
2018-03-01T22:18:39.321Z,20.65
2018-03-01T22:21:06.873Z,20.65
2018-03-01T22:23:34.428Z,20.02
2018-03-01T22:26:02.039Z,20.12
2018-03-01T22:28:30.370Z,20.02
2018-03-01T22:30:57.947Z,18.92
2018-03-01T22:33:25.486Z,20.05
2018-03-01T22:35:53.027Z,18.80
2018-03-01T22:38:20.597Z,20.42
2018-03-01T22:40:48.155Z,21.00
2018-03-01T22:43:15.729Z,19.40
2018-03-01T22:45:43.269Z,20.83
2018-03-01T22:48:11.559Z,20.48
2018-03-01T22:50:39.871Z,20.83
2018-03-01T22:53:07.446Z,20.88
2018-03-01T22:55:35.008Z,19.98
2018-03-01T22:58:02.547Z,20.60
2018-03-01T23:00:41.968Z,20.37
2018-03-01T23:03:10.292Z,22.00
2018-03-01T23:05:37.865Z,19.67
2018-03-01T23:08:05.406Z,20.48
2018-03-01T23:10:32.944Z,20.98
2018-03-01T23:13:01.263Z,20.65
2018-03-01T23:15:28.816Z,21.77
2018-03-01T23:17:56.590Z,21.95
2018-03-01T23:20:24.359Z,20.05
2018-03-01T23:22:51.894Z,21.23
2018-03-01T23:25:20.198Z,22.90
2018-03-01T23:27:47.803Z,23.02
2018-03-01T23:30:15.366Z,20.33
2018-03-01T23:32:42.916Z,21.55
2018-03-01T23:35:10.653Z,22.58
2018-03-01T23:37:39.013Z,23.48
2018-03-01T23:40:06.579Z,21.15
2018-03-01T23:42:34.337Z,21.35
2018-03-01T23:45:01.863Z,22.17
2018-03-01T23:47:29.405Z,22.40
2018-03-01T23:49:57.723Z,22.13
2018-03-01T23:52:25.307Z,21.52
2018-03-01T23:54:52.858Z,21.98
2018-03-01T23:57:20.412Z,21.58
2018-03-01T23:59:47.951Z,21.95
